FAWB/PRY METAR and TAF weather

Enter ICAO airport designator
Station Type Date Time Source
FAWB METAR 2021/02/27 09:00 UTC NOAA

FAWB 270900Z AUTO 04006KT //// // ////// 24/15 Q1021


Station Type Date Time Source
FAWB Decoded METAR 2021/02/27 09:00 UTC NOAA

Wonderboom / Pretoria, South Africa (FAWB) 25-39S 028-13E
Feb 27, 2021 - 04:00 AM EST / 2021.02.27 0900 UTC
Wind: from the NE (040 degrees) at 7 MPH (6 KT):0
Temperature: 75 F (24 C)
Dew Point: 59 F (15 C)
Relative Humidity: 57%
Pressure (altimeter): 30.15 in. Hg (1021 hPa)
ob: FAWB 270900Z AUTO 04006KT //// // ////// 24/15 Q1021
cycle: 9

Station Type Date Time Source
FAWB TAF 2019/01/10 10:00 UTC NOAA

TAF FAWB 101000Z 1010/1018 30007KT CAVOK
BECMG 1014/1016 SCT035 PROB30
TEMPO 1016/1018 -TSRA FEW040CB TX31/1013Z TN26/1018Z

Example: see airport list